Time;durP1;ratioP1;P1;durP2;ratioP2;P2;SDS_P1;SDS_P2;PMS_P1;PMS_P2;Temp;Humidity;BMP_temperature;BMP_pressure;BME280_temperature;BME280_humidity;BME280_pressure;Samples;Min_cycle;Max_cycle;Signal;HPM_P1;HPM_P2
2022/04/04 00:01:51;;;;;;;1.53;1.43;;;21.60;47.40;;;;;;5072635;28;20472;-87
2022/04/04 00:04:19;;;;;;;1.20;1.10;;;21.50;47.30;;;;;;5072605;28;20440;-87
2022/04/04 00:06:46;;;;;;;1.57;1.10;;;21.50;47.30;;;;;;5072639;28;20499;-87
2022/04/04 00:09:14;;;;;;;1.10;0.90;;;21.50;47.30;;;;;;5072550;28;20942;-88
2022/04/04 00:11:42;;;;;;;2.00;1.13;;;21.50;47.20;;;;;;5072681;28;20926;-87
2022/04/04 00:14:10;;;;;;;1.20;1.00;;;21.50;47.30;;;;;;5072639;28;20885;-86
2022/04/04 00:16:37;;;;;;;1.50;1.10;;;21.50;47.20;;;;;;5072731;28;20472;-87
2022/04/04 00:19:05;;;;;;;1.20;1.10;;;21.50;47.30;;;;;;5072417;28;20987;-87
2022/04/04 00:21:32;;;;;;;1.23;1.13;;;21.50;47.20;;;;;;5074823;28;20433;-86
2022/04/04 00:23:59;;;;;;;1.50;1.40;;;21.50;47.20;;;;;;5076059;28;20448;-87
2022/04/04 00:26:26;;;;;;;1.20;1.00;;;21.50;47.20;;;;;;5076114;28;21002;-87
2022/04/04 00:28:53;;;;;;;1.40;1.27;;;21.50;47.10;;;;;;5075869;28;20437;-87
2022/04/04 00:31:19;;;;;;;1.43;1.03;;;21.50;47.20;;;;;;5076065;28;20460;-87
2022/04/04 00:33:46;;;;;;;1.10;1.00;;;21.50;47.20;;;;;;5076060;28;20436;-87
2022/04/04 00:36:14;;;;;;;1.40;1.07;;;21.50;47.20;;;;;;5075961;28;20447;-88
2022/04/04 00:38:41;;;;;;;1.20;0.90;;;21.50;47.20;;;;;;5076090;28;20789;-88
2022/04/04 00:41:10;;;;;;;2.23;1.00;;;21.50;47.20;;;;;;5076251;28;20438;-87
2022/04/04 00:43:37;;;;;;;1.20;0.90;;;21.50;47.20;;;;;;5076032;28;20836;-87
2022/04/04 00:46:06;;;;;;;1.20;0.83;;;21.50;47.20;;;;;;5075834;28;20484;-88
2022/04/04 00:48:34;;;;;;;1.20;1.07;;;21.50;47.10;;;;;;5075676;28;20437;-86
2022/04/04 00:51:01;;;;;;;1.70;1.03;;;21.50;47.10;;;;;;5075919;28;20437;-86
2022/04/04 00:53:31;;;;;;;1.30;1.07;;;21.70;47.20;;;;;;5075713;28;20456;-86
2022/04/04 00:55:59;;;;;;;1.47;0.90;;;21.50;47.10;;;;;;5075693;28;20441;-86
2022/04/04 00:58:27;;;;;;;1.10;0.90;;;21.40;47.00;;;;;;5075646;28;20445;-86
2022/04/04 01:00:54;;;;;;;1.13;0.83;;;21.50;47.10;;;;;;5075649;28;20499;-86
2022/04/04 01:03:21;;;;;;;1.10;1.00;;;21.50;47.00;;;;;;5075390;28;20473;-86
2022/04/04 01:05:48;;;;;;;1.37;1.27;;;21.50;47.00;;;;;;5075446;28;20488;-86
2022/04/04 01:08:15;;;;;;;1.23;1.13;;;21.40;47.00;;;;;;5075489;28;20796;-86
2022/04/04 01:10:45;;;;;;;1.10;0.90;;;21.40;47.00;;;;;;5075494;28;20452;-86
2022/04/04 01:13:12;;;;;;;1.00;0.87;;;21.40;47.00;;;;;;5075493;28;20812;-86
2022/04/04 01:15:40;;;;;;;1.20;1.00;;;21.40;47.00;;;;;;5075333;28;20448;-87
2022/04/04 01:18:07;;;;;;;1.30;1.00;;;21.40;47.00;;;;;;5075097;28;20481;-87
2022/04/04 01:20:35;;;;;;;1.33;1.23;;;21.40;47.00;;;;;;5075160;28;20441;-86
2022/04/04 01:23:02;;;;;;;1.40;1.30;;;21.40;47.00;;;;;;5075185;28;20518;-87
2022/04/04 01:25:32;;;;;;;1.70;0.97;;;21.40;47.00;;;;;;5075360;28;20488;-87
2022/04/04 01:28:00;;;;;;;1.20;1.00;;;21.40;47.00;;;;;;5057569;28;20447;-87
2022/04/04 01:30:28;;;;;;;1.20;1.00;;;21.50;47.00;;;;;;5075213;28;20464;-87
2022/04/04 01:32:56;;;;;;;1.20;1.10;;;21.40;47.00;;;;;;5060248;28;20467;-87
2022/04/04 01:35:23;;;;;;;1.40;1.20;;;21.40;47.00;;;;;;5079285;28;20445;-87
2022/04/04 01:37:50;;;;;;;1.17;0.90;;;21.40;47.00;;;;;;5080257;28;20439;-85
2022/04/04 01:40:17;;;;;;;1.50;1.10;;;21.40;46.90;;;;;;5078890;28;20437;-86
2022/04/04 01:42:50;;;;;;;1.20;0.90;;;21.40;47.00;;;;;;5074808;28;20931;-87
2022/04/04 01:45:17;;;;;;;1.50;1.10;;;21.40;47.00;;;;;;5074879;28;20516;-87
2022/04/04 01:47:45;;;;;;;1.40;1.10;;;21.40;47.00;;;;;;5074742;28;20441;-87
2022/04/04 01:50:12;;;;;;;1.13;0.90;;;21.40;47.00;;;;;;5074623;28;20444;-87
2022/04/04 01:52:39;;;;;;;1.10;1.00;;;21.40;47.00;;;;;;5074570;28;20441;-87
2022/04/04 01:55:07;;;;;;;1.20;1.10;;;21.40;47.00;;;;;;5074506;28;20804;-86
2022/04/04 01:57:35;;;;;;;1.20;1.10;;;21.40;47.00;;;;;;5074502;28;20448;-86
2022/04/04 02:00:05;;;;;;;1.20;1.10;;;21.40;47.00;;;;;;5074301;28;20994;-86
2022/04/04 02:02:32;;;;;;;2.07;1.27;;;21.40;47.00;;;;;;5074377;28;20528;-87
2022/04/04 02:04:59;;;;;;;1.10;1.00;;;21.40;47.00;;;;;;5074325;28;20451;-86
2022/04/04 02:07:25;;;;;;;1.20;0.90;;;21.40;46.90;;;;;;5074298;28;20932;-87
2022/04/04 02:09:53;;;;;;;1.40;0.93;;;21.40;46.90;;;;;;5074244;28;20483;-87
2022/04/04 02:12:20;;;;;;;1.00;0.80;;;21.40;46.90;;;;;;5074334;28;20544;-86
2022/04/04 02:14:46;;;;;;;1.27;1.03;;;21.40;46.90;;;;;;5074255;28;20433;-87
2022/04/04 02:17:15;;;;;;;1.67;1.10;;;21.40;46.90;;;;;;5074189;28;20435;-87
2022/04/04 02:19:41;;;;;;;1.10;0.97;;;21.30;46.80;;;;;;5073936;28;20831;-87
2022/04/04 02:22:10;;;;;;;1.10;0.90;;;21.40;46.90;;;;;;5074067;28;20445;-87
2022/04/04 02:24:37;;;;;;;1.83;0.90;;;21.30;46.80;;;;;;5073881;28;20773;-87
2022/04/04 02:27:05;;;;;;;1.30;0.90;;;21.30;46.80;;;;;;5073804;28;20541;-87
2022/04/04 02:29:32;;;;;;;1.00;0.80;;;21.30;46.90;;;;;;5073722;28;20468;-87
2022/04/04 02:31:58;;;;;;;1.30;1.10;;;21.30;46.90;;;;;;5073788;28;20911;-87
2022/04/04 02:34:27;;;;;;;1.20;0.90;;;21.30;46.80;;;;;;5073828;28;20799;-86
2022/04/04 02:36:53;;;;;;;1.30;0.90;;;21.30;46.80;;;;;;5073608;28;20442;-86
2022/04/04 02:39:20;;;;;;;1.20;1.03;;;21.30;46.80;;;;;;5073804;28;20474;-87
2022/04/04 02:41:47;;;;;;;1.77;1.00;;;21.30;46.80;;;;;;5073608;28;20437;-87
2022/04/04 02:44:14;;;;;;;1.10;0.90;;;21.40;46.90;;;;;;5073270;28;20437;-87
2022/04/04 02:46:40;;;;;;;1.83;0.93;;;21.30;46.80;;;;;;5073366;28;21005;-87
2022/04/04 02:49:07;;;;;;;1.80;0.83;;;21.30;46.80;;;;;;5073286;28;20951;-87
2022/04/04 02:51:35;;;;;;;1.10;0.90;;;21.40;46.90;;;;;;5073514;28;20467;-87
2022/04/04 02:54:02;;;;;;;1.30;1.00;;;21.30;46.80;;;;;;5073531;28;20841;-87
2022/04/04 02:56:30;;;;;;;1.50;0.90;;;21.30;46.80;;;;;;5073312;28;20444;-87
2022/04/04 02:59:01;;;;;;;1.20;1.10;;;21.30;46.80;;;;;;5073313;28;20439;-87
2022/04/04 03:01:28;;;;;;;1.10;1.00;;;21.30;46.80;;;;;;5055484;28;20437;-87
2022/04/04 03:03:55;;;;;;;1.00;0.90;;;21.30;46.80;;;;;;5055597;28;20772;-87
2022/04/04 03:06:22;;;;;;;1.60;1.00;;;21.30;46.80;;;;;;5072965;28;20997;-86
2022/04/04 03:08:50;;;;;;;1.20;1.00;;;21.30;46.80;;;;;;5073241;28;20541;-87
2022/04/04 03:11:18;;;;;;;1.37;1.00;;;21.30;46.80;;;;;;5073409;28;20455;-87
2022/04/04 03:13:45;;;;;;;1.10;0.97;;;21.30;46.80;;;;;;5073591;28;20448;-86
2022/04/04 03:16:12;;;;;;;1.00;0.90;;;21.30;46.80;;;;;;5073281;28;20971;-87
2022/04/04 03:18:41;;;;;;;1.30;1.00;;;21.30;46.80;;;;;;5072891;28;20477;-87
2022/04/04 03:21:08;;;;;;;1.60;1.20;;;21.20;46.70;;;;;;5073482;28;20437;-87
2022/04/04 03:23:39;;;;;;;1.07;0.90;;;21.30;46.80;;;;;;5073211;28;20453;-87
2022/04/04 03:26:09;;;;;;;1.97;0.93;;;21.30;46.80;;;;;;5073493;28;20512;-87
2022/04/04 03:28:36;;;;;;;1.40;1.00;;;21.30;46.80;;;;;;5072997;28;20947;-87
2022/04/04 03:31:04;;;;;;;1.20;0.93;;;21.30;46.70;;;;;;5072850;28;20457;-86
2022/04/04 03:33:31;;;;;;;1.20;0.90;;;21.20;46.70;;;;;;5073197;28;20865;-87
2022/04/04 03:35:58;;;;;;;1.03;0.93;;;21.20;46.70;;;;;;5072989;28;20528;-87
2022/04/04 03:38:25;;;;;;;1.10;0.90;;;21.30;46.80;;;;;;5073131;28;20444;-87
2022/04/04 03:40:53;;;;;;;1.40;1.10;;;21.20;46.70;;;;;;5073523;28;20536;-87
2022/04/04 03:43:21;;;;;;;1.27;1.17;;;21.20;46.70;;;;;;5073030;28;20440;-86
2022/04/04 03:45:48;;;;;;;1.00;0.80;;;21.20;46.70;;;;;;5072857;28;20472;-86
2022/04/04 03:48:16;;;;;;;1.10;1.00;;;21.20;46.70;;;;;;5072714;28;20443;-87
2022/04/04 03:50:43;;;;;;;1.10;0.90;;;21.20;46.70;;;;;;5073247;28;20447;-87
2022/04/04 03:53:10;;;;;;;1.10;0.90;;;21.20;46.70;;;;;;5072885;28;20514;-87
2022/04/04 03:55:39;;;;;;;1.20;0.90;;;21.20;46.70;;;;;;5073738;28;20445;-87
2022/04/04 03:58:08;;;;;;;1.10;0.80;;;21.20;46.70;;;;;;5076986;28;20833;-87
2022/04/04 04:00:37;;;;;;;1.33;1.00;;;21.20;46.70;;;;;;5076916;28;20464;-86
2022/04/04 04:03:05;;;;;;;1.00;0.80;;;21.20;46.70;;;;;;5076619;28;20444;-87
2022/04/04 04:05:31;;;;;;;1.10;0.90;;;21.20;46.70;;;;;;5076990;28;20471;-87
2022/04/04 04:07:58;;;;;;;1.00;0.80;;;21.20;46.70;;;;;;5076583;28;20452;-87
2022/04/04 04:10:25;;;;;;;1.40;0.90;;;21.20;46.60;;;;;;5076665;28;20444;-87
2022/04/04 04:12:52;;;;;;;1.40;1.00;;;21.20;46.70;;;;;;5076582;28;20436;-86
2022/04/04 04:15:20;;;;;;;1.10;1.00;;;21.20;46.70;;;;;;5076429;28;20443;-87
2022/04/04 04:17:51;;;;;;;1.10;0.93;;;21.20;46.70;;;;;;5076467;28;20494;-87
2022/04/04 04:20:22;;;;;;;1.00;0.80;;;21.20;46.60;;;;;;5076559;28;20437;-87
2022/04/04 04:22:52;;;;;;;2.20;1.13;;;21.20;46.60;;;;;;5076498;28;20840;-87
2022/04/04 04:25:21;;;;;;;1.20;0.90;;;21.20;46.60;;;;;;5076577;28;20447;-87
2022/04/04 04:27:48;;;;;;;1.20;1.10;;;21.20;46.60;;;;;;5076229;28;20495;-87
2022/04/04 04:30:15;;;;;;;1.20;0.90;;;21.20;46.60;;;;;;5076457;28;20457;-87
2022/04/04 04:32:44;;;;;;;1.10;0.80;;;21.20;46.60;;;;;;5076557;28;20445;-87
2022/04/04 04:35:13;;;;;;;1.10;1.00;;;21.20;46.60;;;;;;5076424;28;21042;-87
2022/04/04 04:37:40;;;;;;;1.20;1.00;;;21.20;46.60;;;;;;5076376;28;20932;-87
2022/04/04 04:40:08;;;;;;;1.17;1.00;;;21.20;46.60;;;;;;5076089;28;20451;-87
2022/04/04 04:42:35;;;;;;;1.00;0.90;;;21.20;46.60;;;;;;5058520;28;20798;-87
2022/04/04 04:45:02;;;;;;;1.10;0.80;;;21.20;46.60;;;;;;5076178;28;20453;-86
2022/04/04 04:47:29;;;;;;;1.37;0.90;;;21.10;47.10;;;;;;5075988;28;20480;-87
2022/04/04 04:49:56;;;;;;;1.10;1.00;;;21.20;46.60;;;;;;5076127;28;20815;-87
2022/04/04 04:52:24;;;;;;;1.10;0.90;;;21.10;46.50;;;;;;5075796;28;20959;-87
2022/04/04 04:54:51;;;;;;;2.50;0.87;;;21.10;46.50;;;;;;5075887;28;20924;-87
2022/04/04 04:57:18;;;;;;;1.10;1.00;;;21.10;46.50;;;;;;5076089;28;20441;-87
2022/04/04 04:59:45;;;;;;;2.57;1.10;;;21.10;46.50;;;;;;5076000;28;20967;-87
2022/04/04 05:02:12;;;;;;;1.10;0.93;;;21.10;46.50;;;;;;5075815;28;20432;-87
2022/04/04 05:04:39;;;;;;;1.33;1.03;;;21.10;46.50;;;;;;5075555;28;20451;-87
2022/04/04 05:07:07;;;;;;;1.10;0.83;;;21.10;46.50;;;;;;5075611;28;20492;-87
2022/04/04 05:09:35;;;;;;;1.20;1.10;;;21.10;46.50;;;;;;5075814;28;20540;-87
2022/04/04 05:12:02;;;;;;;1.53;0.80;;;21.10;46.50;;;;;;5075830;28;20811;-85
2022/04/04 05:14:29;;;;;;;1.10;0.90;;;21.10;46.50;;;;;;5075114;28;20452;-87
2022/04/04 05:16:56;;;;;;;1.10;0.90;;;21.10;46.50;;;;;;5075750;28;20803;-88
2022/04/04 05:19:23;;;;;;;1.00;0.80;;;21.10;46.40;;;;;;5075279;28;21009;-88
2022/04/04 05:21:51;;;;;;;1.67;0.80;;;21.10;46.50;;;;;;5075683;28;20445;-89
2022/04/04 05:24:17;;;;;;;1.33;1.20;;;21.10;46.60;;;;;;5075497;28;20528;-90
2022/04/04 05:26:46;;;;;;;1.20;1.07;;;21.10;46.60;;;;;;5074981;28;20484;-84
2022/04/04 05:29:13;;;;;;;1.47;0.90;;;21.00;46.40;;;;;;5074678;28;20468;-84
2022/04/04 05:31:40;;;;;;;3.30;0.90;;;21.10;46.50;;;;;;5075337;28;20440;-87
2022/04/04 05:34:07;;;;;;;6.40;0.90;;;21.00;46.60;;;;;;5075334;28;20449;-83
2022/04/04 05:36:34;;;;;;;2.37;1.30;;;21.00;46.60;;;;;;5074947;28;20449;-86
2022/04/04 05:39:01;;;;;;;2.67;2.47;;;21.10;46.60;;;;;;5075135;28;20483;-85
2022/04/04 05:41:28;;;;;;;4.33;3.07;;;21.10;46.60;;;;;;5074803;28;20448;-86
2022/04/04 05:43:57;;;;;;;4.43;3.70;;;21.20;46.80;;;;;;5074169;28;20449;-82
2022/04/04 05:46:24;;;;;;;5.30;2.43;;;21.00;46.50;;;;;;5074277;28;20464;-85
2022/04/04 05:48:51;;;;;;;3.17;2.60;;;21.10;46.00;;;;;;5074388;28;20437;-85
2022/04/04 05:51:18;;;;;;;3.83;2.70;;;21.20;46.40;;;;;;5074390;28;20542;-85
2022/04/04 05:53:46;;;;;;;3.50;2.07;;;21.20;46.60;;;;;;5073880;28;20441;-83
2022/04/04 05:56:12;;;;;;;2.20;2.00;;;21.10;46.60;;;;;;5074402;28;20448;-85
2022/04/04 05:58:40;;;;;;;2.83;2.33;;;21.10;46.60;;;;;;5074876;28;20812;-86
2022/04/04 06:01:09;;;;;;;2.30;2.10;;;21.00;47.20;;;;;;5074780;28;20445;-85
2022/04/04 06:03:36;;;;;;;2.43;2.23;;;21.10;46.80;;;;;;5074373;28;20562;-85
2022/04/04 06:06:03;;;;;;;3.33;2.17;;;21.10;46.70;;;;;;5074750;28;20464;-86
2022/04/04 06:08:31;;;;;;;5.53;2.33;;;21.10;46.70;;;;;;5074383;28;20485;-85
2022/04/04 06:10:57;;;;;;;2.90;1.80;;;21.10;46.80;;;;;;5074422;28;20472;-84
2022/04/04 06:13:24;;;;;;;2.47;1.93;;;21.10;46.90;;;;;;5074369;28;20447;-85
2022/04/04 06:15:52;;;;;;;3.00;1.90;;;21.10;46.90;;;;;;5074364;28;20441;-82
2022/04/04 06:18:20;;;;;;;1.40;1.30;;;21.10;46.90;;;;;;5073531;28;20476;-85
2022/04/04 06:20:47;;;;;;;2.60;1.37;;;21.20;46.80;;;;;;5073818;28;20441;-83
2022/04/04 06:23:14;;;;;;;2.10;1.90;;;21.10;46.80;;;;;;5073208;28;20441;-86
2022/04/04 06:25:41;;;;;;;2.00;1.77;;;21.10;46.90;;;;;;5072964;28;20445;-86
2022/04/04 06:28:09;;;;;;;2.90;2.03;;;21.20;47.10;;;;;;5072798;28;20488;-84
2022/04/04 06:30:36;;;;;;;2.47;2.27;;;21.20;47.10;;;;;;5072419;28;20468;-85
2022/04/04 06:33:05;;;;;;;2.47;2.20;;;21.20;47.20;;;;;;5072964;28;20452;-85
2022/04/04 06:35:33;;;;;;;2.60;1.67;;;21.20;47.30;;;;;;5073562;28;20864;-85
2022/04/04 06:38:02;;;;;;;2.00;1.90;;;21.20;47.40;;;;;;5073718;28;20437;-85
2022/04/04 06:40:30;;;;;;;2.83;2.00;;;21.20;47.40;;;;;;5073692;28;20498;-86
2022/04/04 06:42:58;;;;;;;2.13;1.93;;;21.20;47.30;;;;;;5073426;28;20449;-86
2022/04/04 06:45:25;;;;;;;2.57;2.10;;;21.30;47.40;;;;;;5073836;28;20433;-86
2022/04/04 06:47:52;;;;;;;1.67;1.57;;;21.20;46.80;;;;;;5073467;28;20484;-87
2022/04/04 06:50:19;;;;;;;2.37;1.80;;;21.20;46.90;;;;;;5072766;28;20445;-84
2022/04/04 06:52:47;;;;;;;2.60;2.40;;;21.20;46.90;;;;;;5073420;28;20445;-85
2022/04/04 06:55:15;;;;;;;4.33;2.60;;;21.20;45.80;;;;;;5073413;28;20437;-83
2022/04/04 06:57:42;;;;;;;5.17;3.50;;;21.10;45.00;;;;;;5073726;28;20458;-83
2022/04/04 07:00:11;;;;;;;3.47;2.80;;;21.00;44.60;;;;;;5073712;28;20461;-88
2022/04/04 07:02:39;;;;;;;4.03;2.37;;;21.00;44.50;;;;;;5073895;28;20433;-89
2022/04/04 07:05:08;;;;;;;2.40;2.20;;;21.10;45.10;;;;;;5072586;28;20920;-84
2022/04/04 07:07:35;;;;;;;2.20;2.00;;;21.10;46.00;;;;;;5074544;28;20577;-86
2022/04/04 07:10:03;;;;;;;3.70;2.00;;;21.10;46.00;;;;;;5073862;28;20784;-85
2022/04/04 07:12:30;;;;;;;5.10;1.50;;;21.10;46.30;;;;;;5073268;28;20459;-85
2022/04/04 07:14:58;;;;;;;1.60;1.50;;;21.30;46.60;;;;;;5073249;28;20444;-87
2022/04/04 07:17:24;;;;;;;2.13;1.93;;;21.20;46.50;;;;;;5073225;28;20842;-85
2022/04/04 07:19:52;;;;;;;3.23;1.90;;;21.20;46.50;;;;;;5072835;28;20441;-86
2022/04/04 07:22:19;;;;;;;1.60;1.50;;;21.20;46.60;;;;;;5073163;28;20449;-92
2022/04/04 07:24:46;;;;;;;2.70;1.77;;;21.30;46.70;;;;;;5073042;28;20441;-91
2022/04/04 07:27:16;;;;;;;3.93;2.30;;;21.30;46.30;;;;;;5073121;28;20500;-87
2022/04/04 07:29:43;;;;;;;5.00;1.57;;;21.30;45.70;;;;;;5072285;28;20532;-88
2022/04/04 07:32:10;;;;;;;3.20;1.57;;;21.30;46.10;;;;;;5076009;28;21016;-87
2022/04/04 07:34:38;;;;;;;2.80;1.40;;;21.30;46.30;;;;;;5077062;28;20815;-87
2022/04/04 07:37:05;;;;;;;2.23;1.33;;;21.40;46.50;;;;;;5076646;28;20487;-86
2022/04/04 07:39:33;;;;;;;5.33;1.83;;;21.40;46.40;;;;;;5075883;28;20459;-87
2022/04/04 07:42:00;;;;;;;5.00;2.10;;;21.40;46.50;;;;;;5077534;28;20449;-87
2022/04/04 07:44:28;;;;;;;3.87;2.20;;;21.40;46.20;;;;;;5077412;28;20954;-89
2022/04/04 07:46:55;;;;;;;4.80;2.10;;;21.30;45.70;;;;;;5077067;28;20931;-87
2022/04/04 07:49:22;;;;;;;1.70;1.50;;;21.30;45.90;;;;;;5077300;28;20444;-85
2022/04/04 07:51:48;;;;;;;5.93;2.17;;;21.40;46.30;;;;;;5077199;28;20437;-85
2022/04/04 07:54:17;;;;;;;1.83;1.63;;;21.40;46.50;;;;;;5076915;28;20448;-84
2022/04/04 07:56:44;;;;;;;2.47;1.73;;;21.40;46.60;;;;;;5076987;28;20444;-85
2022/04/04 07:59:12;;;;;;;1.97;1.40;;;21.50;46.60;;;;;;5077091;28;20527;-85
2022/04/04 08:01:40;;;;;;;2.20;1.70;;;21.50;46.60;;;;;;5077204;28;20433;-87
2022/04/04 08:04:06;;;;;;;2.70;1.60;;;21.50;46.60;;;;;;5080013;28;20441;-85
2022/04/04 08:06:33;;;;;;;1.60;1.37;;;21.50;46.60;;;;;;5087734;28;20433;-85
2022/04/04 08:09:00;;;;;;;1.67;1.57;;;21.60;46.60;;;;;;5082441;28;20483;-84
2022/04/04 08:11:27;;;;;;;1.83;1.40;;;21.60;46.70;;;;;;5082503;28;20528;-85
2022/04/04 08:13:54;;;;;;;2.03;1.73;;;21.70;46.80;;;;;;5076707;28;20436;-85
2022/04/04 08:16:22;;;;;;;2.77;1.77;;;21.70;46.80;;;;;;5079552;28;20433;-85
2022/04/04 08:18:50;;;;;;;1.50;1.30;;;21.70;46.80;;;;;;5086372;28;20462;-85
2022/04/04 08:21:17;;;;;;;2.57;2.07;;;21.90;47.00;;;;;;5088406;28;20433;-85
2022/04/04 08:23:44;;;;;;;3.10;1.67;;;21.80;47.00;;;;;;5081188;28;20435;-84
2022/04/04 08:26:11;;;;;;;7.50;2.07;;;21.80;47.00;;;;;;5076667;28;20528;-85
2022/04/04 08:28:38;;;;;;;6.50;1.80;;;21.80;47.10;;;;;;5087581;28;20494;-85
2022/04/04 08:31:05;;;;;;;6.07;2.33;;;21.80;47.10;;;;;;5075042;28;20443;-85
2022/04/04 08:33:32;;;;;;;8.60;3.43;;;21.80;47.20;;;;;;5084882;28;20463;-85
2022/04/04 08:36:03;;;;;;;8.67;3.00;;;21.90;47.30;;;;;;5089401;28;20447;-84
2022/04/04 08:38:31;;;;;;;8.00;3.07;;;21.90;47.30;;;;;;5080716;28;20527;-84
2022/04/04 08:41:02;;;;;;;13.37;4.27;;;21.90;47.30;;;;;;5085147;28;20435;-87
2022/04/04 08:43:34;;;;;;;8.47;3.43;;;21.90;47.60;;;;;;5084218;28;20439;-86
2022/04/04 08:46:04;;;;;;;34.20;4.27;;;21.90;47.60;;;;;;5084470;28;20511;-88
2022/04/04 08:48:32;;;;;;;7.57;3.47;;;22.00;47.70;;;;;;5086627;28;20477;-84
2022/04/04 08:51:00;;;;;;;8.10;4.00;;;22.00;47.70;;;;;;5085063;28;20483;-84
2022/04/04 08:53:26;;;;;;;5.63;3.10;;;22.00;47.80;;;;;;5087492;28;20928;-85
2022/04/04 08:55:55;;;;;;;8.23;2.57;;;22.00;47.70;;;;;;5085043;28;20424;-86
2022/04/04 08:58:22;;;;;;;8.43;3.70;;;22.00;48.10;;;;;;5081797;28;20524;-85
2022/04/04 09:00:48;;;;;;;7.63;3.40;;;22.00;48.10;;;;;;5086395;28;20798;-86
2022/04/04 09:03:20;;;;;;;5.40;3.30;;;22.10;48.10;;;;;;5082358;28;20441;-85
2022/04/04 09:05:52;;;;;;;5.27;2.80;;;22.10;48.00;;;;;;5076258;28;20429;-86
2022/04/04 09:08:21;;;;;;;8.67;2.70;;;22.10;48.20;;;;;;5078111;28;20865;-86
2022/04/04 09:10:50;;;;;;;8.87;3.40;;;22.10;48.20;;;;;;5087113;28;20447;-85
2022/04/04 09:13:19;;;;;;;9.83;3.43;;;22.10;48.30;;;;;;5085160;28;20433;-86
2022/04/04 09:15:54;;;;;;;7.63;2.90;;;22.10;48.40;;;;;;5087201;28;20432;-84
2022/04/04 09:18:41;;;;;;;9.73;3.07;;;22.10;48.30;;;;;;5076484;28;20469;-89
2022/04/04 09:21:09;;;;;;;7.20;3.00;;;22.10;48.50;;;;;;5077218;28;20935;-88
2022/04/04 09:23:54;;;;;;;3.20;2.27;;;22.10;48.60;;;;;;5079959;28;20437;-86
2022/04/04 09:26:28;;;;;;;4.33;2.83;;;22.10;48.50;;;;;;5081491;28;20444;-84
2022/04/04 09:28:55;;;;;;;9.43;2.97;;;22.10;48.50;;;;;;5090886;28;20904;-85
2022/04/04 09:31:22;;;;;;;3.40;2.67;;;22.30;48.70;;;;;;5084393;28;20535;-85
2022/04/04 09:33:49;;;;;;;8.90;2.90;;;22.20;48.70;;;;;;5083821;28;20441;-84
2022/04/04 09:36:15;;;;;;;4.90;2.63;;;22.10;48.60;;;;;;5083737;28;20447;-84
2022/04/04 09:38:54;;;;;;;3.73;2.03;;;22.10;48.50;;;;;;5084845;28;20434;-85
2022/04/04 09:41:24;;;;;;;5.87;2.20;;;22.20;48.60;;;;;;5081386;28;20436;-85
2022/04/04 09:43:52;;;;;;;5.10;2.30;;;22.10;48.40;;;;;;5083252;28;20509;-84
2022/04/04 09:46:19;;;;;;;6.47;2.13;;;22.20;48.50;;;;;;5083135;28;20441;-84
2022/04/04 09:49:02;;;;;;;4.30;2.23;;;22.10;48.30;;;;;;5083546;28;21013;-86
2022/04/04 09:51:39;;;;;;;4.40;2.70;;;22.20;48.50;;;;;;5078609;28;20449;-85
2022/04/04 09:54:09;;;;;;;9.17;2.13;;;22.10;48.50;;;;;;5071051;28;20824;-85
2022/04/04 09:56:37;;;;;;;2.60;2.10;;;22.10;48.40;;;;;;5082939;28;20445;-85
2022/04/04 09:59:04;;;;;;;5.97;2.87;;;22.10;48.40;;;;;;5082766;28;20463;-85
2022/04/04 10:01:32;;;;;;;4.90;2.20;;;22.10;48.30;;;;;;5074894;28;20814;-85
2022/04/04 10:04:01;;;;;;;3.10;2.07;;;22.10;48.50;;;;;;5074781;28;20785;-83
2022/04/04 10:06:30;;;;;;;3.67;2.20;;;22.10;48.40;;;;;;5073381;28;20441;-86
2022/04/04 10:08:59;;;;;;;4.10;2.23;;;22.10;48.40;;;;;;5080901;28;20500;-85
2022/04/04 10:11:30;;;;;;;4.00;2.20;;;22.30;48.60;;;;;;5077493;28;20893;-85
2022/04/04 10:13:58;;;;;;;2.70;2.30;;;22.20;48.50;;;;;;5056438;28;20456;-87
2022/04/04 10:16:26;;;;;;;11.57;2.37;;;22.20;48.50;;;;;;5075663;28;20441;-87
2022/04/04 10:18:55;;;;;;;2.60;1.60;;;22.10;47.50;;;;;;5074341;28;20469;-88
2022/04/04 10:21:22;;;;;;;3.77;2.00;;;22.10;47.10;;;;;;5074147;28;20433;-86
2022/04/04 10:23:53;;;;;;;2.77;2.57;;;22.10;47.50;;;;;;5074085;28;20936;-85
2022/04/04 10:26:22;;;;;;;3.43;2.40;;;22.10;47.90;;;;;;5079620;28;20436;-86
2022/04/04 10:28:50;;;;;;;3.83;2.13;;;22.30;48.20;;;;;;5079415;28;20488;-87
2022/04/04 10:31:19;;;;;;;2.53;2.10;;;22.30;48.20;;;;;;5083302;28;20433;-88
2022/04/04 10:33:47;;;;;;;4.43;2.13;;;22.20;48.20;;;;;;5087975;28;20429;-88
2022/04/04 10:36:16;;;;;;;1.97;1.80;;;22.20;48.30;;;;;;5078348;28;20451;-85
2022/04/04 10:38:49;;;;;;;4.40;2.03;;;22.20;48.30;;;;;;5080916;28;20439;-88
2022/04/04 10:41:18;;;;;;;2.23;1.90;;;22.20;48.30;;;;;;5093980;28;20440;-88
2022/04/04 10:43:47;;;;;;;2.90;2.63;;;22.30;48.40;;;;;;5079470;28;20444;-87
2022/04/04 10:46:18;;;;;;;2.93;2.73;;;22.30;48.50;;;;;;5087699;28;20532;-89
2022/04/04 10:48:50;;;;;;;7.43;2.90;;;22.30;48.40;;;;;;5076162;28;20476;-87
2022/04/04 10:51:18;;;;;;;3.30;2.53;;;22.30;48.40;;;;;;5080018;28;20428;-87
2022/04/04 10:53:49;;;;;;;5.83;2.90;;;22.30;48.40;;;;;;5085364;28;20436;-86
2022/04/04 10:56:21;;;;;;;2.63;2.43;;;22.30;48.50;;;;;;5084750;28;20532;-86
2022/04/04 10:58:48;;;;;;;2.33;2.13;;;22.30;48.40;;;;;;5055625;28;20461;-85
2022/04/04 11:01:18;;;;;;;2.70;2.50;;;22.40;48.60;;;;;;5085068;28;20450;-86
2022/04/04 11:03:59;;;;;;;3.70;3.03;;;22.30;48.50;;;;;;5091004;28;20467;-85
2022/04/04 11:09:32;;;;;;;3.27;2.50;;;22.30;48.70;;;;;;5080195;28;20610;-88
2022/04/04 11:12:14;;;;;;;3.10;2.13;;;22.20;48.80;;;;;;5065583;28;20482;-87
2022/04/04 11:14:58;;;;;;;2.70;2.43;;;22.20;48.70;;;;;;5079685;28;20433;-86
2022/04/04 11:17:36;;;;;;;3.70;2.33;;;22.20;48.70;;;;;;5084566;28;20444;-87
2022/04/04 11:20:16;;;;;;;3.03;2.33;;;22.40;48.90;;;;;;5089759;28;20475;-86
2022/04/04 11:22:46;;;;;;;2.67;2.10;;;22.30;48.80;;;;;;5093360;28;20447;-87
2022/04/04 11:25:16;;;;;;;3.93;2.57;;;22.20;48.80;;;;;;5079513;28;20437;-84
2022/04/04 11:27:48;;;;;;;2.87;2.53;;;22.30;48.90;;;;;;5090647;28;20775;-85
2022/04/04 11:30:16;;;;;;;10.53;2.70;;;22.30;48.90;;;;;;5084662;28;20476;-86
2022/04/04 11:32:47;;;;;;;3.67;2.30;;;22.30;49.00;;;;;;5089854;28;20446;-86
2022/04/04 11:35:18;;;;;;;2.70;2.50;;;22.30;48.90;;;;;;5084314;28;20433;-85
2022/04/04 11:37:48;;;;;;;1.87;1.70;;;22.30;49.50;;;;;;5093732;28;20435;-91
2022/04/04 11:40:17;;;;;;;2.10;1.90;;;22.20;48.50;;;;;;5087555;28;20940;-87
2022/04/04 11:42:46;;;;;;;2.20;2.10;;;22.20;48.50;;;;;;5076503;28;20951;-88
2022/04/04 11:45:17;;;;;;;3.80;2.13;;;22.40;48.80;;;;;;5093742;28;20814;-88
2022/04/04 11:47:57;;;;;;;2.23;2.03;;;22.30;48.70;;;;;;5093910;28;20432;-88
2022/04/04 11:50:26;;;;;;;3.43;2.00;;;22.30;48.80;;;;;;5093268;28;20478;-90
2022/04/04 11:52:55;;;;;;;2.80;1.80;;;22.30;49.00;;;;;;5093423;28;20451;-91
2022/04/04 11:55:25;;;;;;;4.47;1.80;;;22.30;48.90;;;;;;5093516;28;20439;-90
2022/04/04 11:57:57;;;;;;;4.20;1.93;;;22.30;48.50;;;;;;5093341;28;20800;-89
2022/04/04 12:00:26;;;;;;;2.10;1.73;;;22.30;48.60;;;;;;5093224;28;20527;-90
2022/04/04 12:02:53;;;;;;;1.90;1.70;;;22.30;49.00;;;;;;5093484;28;20772;-89
2022/04/04 12:05:23;;;;;;;4.80;1.80;;;22.30;49.00;;;;;;5075031;28;20444;-89
2022/04/04 12:07:51;;;;;;;2.27;1.63;;;22.30;49.00;;;;;;5093285;28;20476;-89
2022/04/04 12:10:31;;;;;;;1.87;1.67;;;22.40;49.20;;;;;;5093245;28;20541;-88
2022/04/04 12:13:04;;;;;;;1.87;1.70;;;22.60;49.30;;;;;;5093435;28;20489;-86
2022/04/04 12:15:32;;;;;;;1.63;1.53;;;22.40;49.20;;;;;;5093311;28;20447;-89
2022/04/04 12:18:00;;;;;;;3.20;1.70;;;22.40;49.20;;;;;;5095801;28;20486;-89
2022/04/04 12:20:36;;;;;;;9.63;1.80;;;22.40;49.20;;;;;;5097195;28;20444;-90
2022/04/04 12:25:48;;;;;;;3.70;1.83;;;22.40;49.20;;;;;;5097177;28;20948;-89
2022/04/04 12:28:25;;;;;;;1.70;1.60;;;22.40;49.30;;;;;;5078791;28;20470;-89
2022/04/04 12:30:52;;;;;;;2.00;1.80;;;22.40;49.40;;;;;;5096799;28;20534;-89
2022/04/04 12:33:19;;;;;;;4.17;1.93;;;22.40;49.30;;;;;;5078554;28;20440;-90
2022/04/04 12:35:49;;;;;;;1.57;1.40;;;22.40;49.30;;;;;;5096722;28;20493;-89
2022/04/04 12:38:27;;;;;;;1.83;1.73;;;22.40;49.40;;;;;;5078698;28;20439;-89
2022/04/04 12:41:09;;;;;;;1.90;1.63;;;22.50;49.30;;;;;;5096515;28;20431;-89
2022/04/04 12:43:37;;;;;;;1.90;1.80;;;22.50;49.30;;;;;;5096668;28;20829;-90
2022/04/04 12:46:06;;;;;;;6.27;1.80;;;22.40;49.90;;;;;;5096463;28;20436;-89
2022/04/04 12:48:37;;;;;;;3.83;1.73;;;22.60;49.50;;;;;;5078632;28;20439;-90
2022/04/04 12:51:06;;;;;;;2.90;2.10;;;22.50;49.30;;;;;;5078560;28;20436;-89
2022/04/04 12:53:49;;;;;;;8.93;2.23;;;22.40;49.60;;;;;;5097018;28;20454;-89
2022/04/04 12:56:17;;;;;;;4.53;2.13;;;22.30;49.50;;;;;;5022187;28;20457;-92
2022/04/04 12:58:44;;;;;;;1.80;1.50;;;22.30;49.50;;;;;;5057275;28;20476;-92